Time;durP1;ratioP1;P1;durP2;ratioP2;P2;SDS_P1;SDS_P2;PMS_P1;PMS_P2;Temp;Humidity;BMP_temperature;BMP_pressure;BME280_temperature;BME280_humidity;BME280_pressure;Samples;Min_cycle;Max_cycle;Signal;HPM_P1;HPM_P2
2023/08/19 00:00:49;;;;;;;4.67;3.60;;;29.40;51.50;;;;;;5022800;28;20253;-45
2023/08/19 00:03:14;;;;;;;3.70;3.40;;;29.40;51.40;;;;;;5007464;28;20252;-45
2023/08/19 00:05:40;;;;;;;4.13;3.57;;;29.50;51.20;;;;;;5013687;28;20276;-47
2023/08/19 00:08:05;;;;;;;6.30;3.27;;;29.50;51.40;;;;;;5013862;28;20658;-45
2023/08/19 00:10:31;;;;;;;3.70;3.40;;;29.50;51.30;;;;;;5014093;28;20593;-44
2023/08/19 00:12:57;;;;;;;4.40;4.10;;;29.50;51.20;;;;;;5011691;28;20606;-45
2023/08/19 00:15:22;;;;;;;3.80;3.40;;;29.40;50.80;;;;;;5013479;28;20200;-44
2023/08/19 00:17:48;;;;;;;4.90;3.80;;;29.20;50.60;;;;;;5006130;28;20208;-45
2023/08/19 00:20:14;;;;;;;6.43;3.90;;;29.00;51.60;;;;;;5009241;28;20282;-45
2023/08/19 00:22:39;;;;;;;6.20;3.00;;;29.10;52.00;;;;;;5010080;28;20708;-44
2023/08/19 00:25:05;;;;;;;4.50;3.13;;;29.00;51.60;;;;;;5011973;28;20248;-46
2023/08/19 00:27:31;;;;;;;8.10;3.33;;;29.00;52.00;;;;;;5003894;28;20277;-45
2023/08/19 00:29:56;;;;;;;3.90;3.40;;;29.00;51.90;;;;;;5004975;28;20200;-45
2023/08/19 00:32:22;;;;;;;7.07;3.10;;;29.10;51.80;;;;;;5006647;28;20251;-45
2023/08/19 00:34:47;;;;;;;4.83;3.20;;;29.10;51.70;;;;;;5002490;28;20639;-45
2023/08/19 00:37:13;;;;;;;5.13;3.83;;;29.20;51.70;;;;;;5005565;28;20296;-46
2023/08/19 00:39:39;;;;;;;4.20;3.73;;;29.20;51.10;;;;;;5007724;28;20238;-45
2023/08/19 00:42:06;;;;;;;5.53;3.70;;;29.10;51.30;;;;;;5005713;28;20205;-44
2023/08/19 00:44:34;;;;;;;7.73;3.57;;;29.00;51.50;;;;;;5013315;28;20577;-45
2023/08/19 00:47:03;;;;;;;4.67;4.20;;;29.00;51.90;;;;;;5012857;28;20611;-45
2023/08/19 00:49:32;;;;;;;4.40;4.00;;;28.70;52.30;;;;;;5012960;28;20437;-44
2023/08/19 00:51:59;;;;;;;3.77;3.37;;;28.50;52.70;;;;;;5012977;28;20471;-44
2023/08/19 00:54:26;;;;;;;3.60;3.30;;;28.50;52.80;;;;;;5012882;28;20481;-44
2023/08/19 00:56:52;;;;;;;4.03;3.63;;;28.50;53.10;;;;;;5011251;28;20440;-47
2023/08/19 00:59:18;;;;;;;4.67;3.40;;;28.50;53.10;;;;;;5011221;28;20936;-44
2023/08/19 01:01:44;;;;;;;5.27;3.40;;;28.50;52.70;;;;;;5012794;28;20201;-45
2023/08/19 01:04:09;;;;;;;4.47;3.87;;;28.60;53.10;;;;;;5002628;28;20444;-44
2023/08/19 01:07:11;;;;;;;3.70;3.40;;;28.30;53.50;;;;;;5007802;28;20264;-44
2023/08/19 01:09:40;;;;;;;3.43;3.13;;;28.40;53.50;;;;;;4996148;28;20216;-45
2023/08/19 01:12:22;;;;;;;3.90;3.50;;;28.50;53.50;;;;;;5010034;28;20588;-48
2023/08/19 01:14:58;;;;;;;4.07;3.43;;;28.50;53.50;;;;;;5004934;28;20859;-45
2023/08/19 01:17:28;;;;;;;3.53;3.23;;;28.60;53.00;;;;;;5010081;28;20527;-49
2023/08/19 01:19:56;;;;;;;7.43;4.00;;;28.60;52.90;;;;;;5006831;28;20855;-49
2023/08/19 01:22:52;;;;;;;3.70;3.50;;;28.70;52.90;;;;;;5000031;28;21016;-46
2023/08/19 01:25:18;;;;;;;4.13;3.73;;;28.80;52.60;;;;;;5004815;28;20519;-45
2023/08/19 01:27:44;;;;;;;3.77;3.30;;;28.80;53.00;;;;;;4998954;28;20435;-45
2023/08/19 01:30:10;;;;;;;4.67;3.50;;;28.80;52.40;;;;;;5002250;28;20508;-48
2023/08/19 01:32:38;;;;;;;3.97;3.67;;;28.80;52.50;;;;;;4999769;28;20193;-47
2023/08/19 01:35:04;;;;;;;3.70;3.40;;;28.80;52.60;;;;;;5001440;28;20491;-47
2023/08/19 01:37:50;;;;;;;3.87;3.57;;;28.80;52.70;;;;;;5009457;28;20814;-48
2023/08/19 01:40:16;;;;;;;4.23;3.83;;;28.80;52.90;;;;;;5005388;28;20967;-51
2023/08/19 01:42:42;;;;;;;3.57;3.20;;;28.80;52.70;;;;;;4998250;28;20449;-48
2023/08/19 01:45:09;;;;;;;3.83;3.20;;;28.80;52.60;;;;;;5007395;28;20797;-50
2023/08/19 01:47:38;;;;;;;4.77;3.37;;;28.90;52.30;;;;;;5010778;28;20475;-45
2023/08/19 01:50:06;;;;;;;5.80;3.17;;;28.90;52.30;;;;;;5011661;28;20445;-50
2023/08/19 01:52:31;;;;;;;5.10;3.63;;;28.90;52.30;;;;;;5006810;28;20453;-48
2023/08/19 01:54:57;;;;;;;4.73;3.60;;;28.90;51.80;;;;;;5005639;28;21075;-50
2023/08/19 01:57:27;;;;;;;4.73;3.90;;;28.70;52.10;;;;;;5006797;28;20576;-49
2023/08/19 01:59:56;;;;;;;7.00;3.90;;;28.70;52.40;;;;;;5004881;28;20244;-47
2023/08/19 02:02:22;;;;;;;3.47;3.07;;;28.70;52.40;;;;;;5010490;28;20476;-45
2023/08/19 02:04:48;;;;;;;3.70;3.30;;;28.70;52.50;;;;;;5011644;28;21001;-47
2023/08/19 02:07:14;;;;;;;4.07;3.27;;;28.70;52.50;;;;;;5008507;28;20448;-48
2023/08/19 02:09:40;;;;;;;6.63;3.80;;;28.70;52.50;;;;;;5007359;28;20186;-48
2023/08/19 02:12:06;;;;;;;3.37;3.07;;;28.70;52.50;;;;;;5006508;28;20198;-45
2023/08/19 02:14:32;;;;;;;4.03;3.57;;;28.70;52.60;;;;;;5011944;28;21005;-48
2023/08/19 02:16:57;;;;;;;3.57;3.30;;;28.70;52.50;;;;;;5017814;28;20456;-51
2023/08/19 02:19:23;;;;;;;3.80;3.40;;;28.70;52.80;;;;;;5006638;28;22034;-48
2023/08/19 02:21:49;;;;;;;3.93;3.50;;;28.70;52.70;;;;;;4998963;28;20205;-47
2023/08/19 02:24:14;;;;;;;3.23;2.93;;;28.70;52.70;;;;;;5006676;28;20661;-48
2023/08/19 02:26:40;;;;;;;3.40;3.10;;;28.60;52.60;;;;;;5007370;28;20231;-50
2023/08/19 02:29:05;;;;;;;4.17;3.10;;;28.60;52.80;;;;;;5009138;28;20592;-48
2023/08/19 02:31:31;;;;;;;3.40;3.10;;;28.50;53.00;;;;;;5006611;28;20248;-47
2023/08/19 02:33:56;;;;;;;4.30;3.63;;;28.60;52.70;;;;;;5001695;28;20312;-48
2023/08/19 02:36:22;;;;;;;4.60;3.80;;;28.60;52.70;;;;;;5007575;28;20195;-50
2023/08/19 02:38:48;;;;;;;3.80;3.50;;;28.60;52.70;;;;;;5004108;28;20248;-47
2023/08/19 02:41:14;;;;;;;3.43;2.90;;;28.70;52.80;;;;;;5000618;28;20259;-47
2023/08/19 02:43:39;;;;;;;4.50;3.73;;;28.70;52.60;;;;;;5006658;28;20200;-48
2023/08/19 02:46:05;;;;;;;4.43;3.13;;;28.70;52.50;;;;;;5010023;28;20323;-47
2023/08/19 02:48:31;;;;;;;3.97;3.67;;;28.60;52.80;;;;;;5003041;28;20205;-47
2023/08/19 02:50:56;;;;;;;4.23;3.40;;;28.60;52.80;;;;;;5005663;28;20245;-47
2023/08/19 02:53:22;;;;;;;3.83;3.53;;;28.50;53.10;;;;;;5010515;28;20228;-47
2023/08/19 02:55:51;;;;;;;3.67;3.37;;;28.50;53.30;;;;;;5005100;28;20684;-46
2023/08/19 02:58:17;;;;;;;4.40;3.20;;;28.40;53.50;;;;;;5004707;28;20446;-44
2023/08/19 03:00:46;;;;;;;3.73;3.43;;;28.40;53.20;;;;;;5003408;28;20451;-47
2023/08/19 03:03:12;;;;;;;5.40;3.57;;;28.50;53.20;;;;;;5003656;28;20209;-47
2023/08/19 03:05:39;;;;;;;5.83;4.07;;;28.50;53.10;;;;;;5004769;28;20457;-47
2023/08/19 03:08:06;;;;;;;3.97;3.60;;;28.50;53.00;;;;;;5003794;28;20574;-46
2023/08/19 03:10:37;;;;;;;4.00;3.50;;;28.50;53.20;;;;;;5006987;28;20453;-49
2023/08/19 03:13:06;;;;;;;4.47;3.37;;;28.50;53.10;;;;;;5005206;28;20494;-46
2023/08/19 03:15:33;;;;;;;6.13;3.83;;;28.50;53.20;;;;;;5015561;28;20817;-46
2023/08/19 03:17:59;;;;;;;3.93;3.63;;;28.40;53.20;;;;;;5012533;28;20428;-46
2023/08/19 03:20:25;;;;;;;3.90;3.50;;;28.50;53.20;;;;;;5011426;28;20441;-44
2023/08/19 03:22:51;;;;;;;5.73;3.63;;;28.40;53.20;;;;;;5001293;28;20638;-48
2023/08/19 03:25:17;;;;;;;3.70;3.37;;;28.40;53.30;;;;;;5006237;28;20441;-44
2023/08/19 03:27:42;;;;;;;3.93;3.53;;;28.40;53.50;;;;;;5005378;28;20209;-45
2023/08/19 03:30:09;;;;;;;3.40;3.10;;;28.30;53.50;;;;;;5002915;28;20194;-46
2023/08/19 03:32:34;;;;;;;3.40;3.10;;;28.30;53.60;;;;;;5002573;28;20228;-44
2023/08/19 03:35:00;;;;;;;3.43;3.20;;;28.20;53.70;;;;;;5011820;28;20965;-50
2023/08/19 03:37:26;;;;;;;3.73;3.43;;;28.30;53.60;;;;;;5001317;28;20198;-47
2023/08/19 03:39:51;;;;;;;3.57;3.27;;;28.30;53.60;;;;;;5004052;28;20563;-49
2023/08/19 03:42:18;;;;;;;4.03;3.13;;;28.20;53.70;;;;;;5000880;28;20216;-49
2023/08/19 03:44:44;;;;;;;4.10;3.70;;;28.20;53.70;;;;;;5002454;28;20642;-47
2023/08/19 03:47:11;;;;;;;4.30;3.30;;;28.10;53.20;;;;;;5007133;28;20481;-49
2023/08/19 03:49:37;;;;;;;3.87;3.57;;;28.00;53.90;;;;;;5002857;28;20281;-44
2023/08/19 03:52:04;;;;;;;4.40;4.00;;;28.00;53.90;;;;;;5006199;28;21095;-47
2023/08/19 03:54:30;;;;;;;4.37;3.53;;;28.00;54.20;;;;;;5014676;28;20586;-44
2023/08/19 03:56:55;;;;;;;6.77;3.47;;;27.90;54.10;;;;;;5014045;28;20504;-47
2023/08/19 03:59:21;;;;;;;5.23;3.70;;;27.90;54.50;;;;;;5014087;28;20189;-49
2023/08/19 04:01:47;;;;;;;4.40;4.10;;;27.90;54.40;;;;;;5013987;28;20192;-46
2023/08/19 04:09:04;;;;;;;5.60;3.73;;;27.80;54.60;;;;;;5008069;28;20194;-46
2023/08/19 04:11:29;;;;;;;4.23;3.83;;;27.80;54.00;;;;;;5007546;28;20198;-49
2023/08/19 04:13:55;;;;;;;5.10;4.23;;;27.70;54.30;;;;;;5008772;28;20479;-50
2023/08/19 04:16:22;;;;;;;4.97;3.90;;;27.40;54.70;;;;;;5007564;28;20213;-47
2023/08/19 04:18:48;;;;;;;5.10;4.20;;;27.20;55.20;;;;;;5011832;28;20204;-49
2023/08/19 04:21:14;;;;;;;4.67;4.10;;;27.10;55.40;;;;;;5009944;28;20437;-48
2023/08/19 04:23:39;;;;;;;4.60;3.70;;;27.10;55.50;;;;;;5011962;28;20437;-44
2023/08/19 04:26:05;;;;;;;4.90;4.50;;;27.00;55.60;;;;;;5012173;28;20206;-45
2023/08/19 04:28:31;;;;;;;5.20;3.90;;;26.70;56.70;;;;;;5010878;28;20228;-49
2023/08/19 04:31:05;;;;;;;4.43;4.13;;;26.40;57.70;;;;;;5009911;28;20186;-49
2023/08/19 04:33:31;;;;;;;4.83;3.80;;;26.40;58.00;;;;;;5012498;28;20255;-46
2023/08/19 04:35:57;;;;;;;8.23;4.27;;;26.50;57.80;;;;;;5009575;28;21000;-46
2023/08/19 04:38:22;;;;;;;5.20;3.50;;;26.50;57.20;;;;;;5011453;28;20524;-46
2023/08/19 04:40:50;;;;;;;6.87;3.77;;;26.60;57.50;;;;;;5002654;28;20689;-47
2023/08/19 04:43:18;;;;;;;4.93;4.33;;;26.70;57.50;;;;;;5012458;28;20192;-48
2023/08/19 04:45:44;;;;;;;4.30;4.00;;;26.80;57.20;;;;;;5012255;28;20954;-48
2023/08/19 04:48:09;;;;;;;4.40;3.40;;;27.00;56.70;;;;;;5011909;28;20480;-45
2023/08/19 04:50:36;;;;;;;4.73;3.50;;;27.10;56.50;;;;;;5009741;28;20700;-47
2023/08/19 04:53:01;;;;;;;4.20;3.80;;;27.20;56.20;;;;;;5000112;28;20194;-45
2023/08/19 04:55:27;;;;;;;4.40;4.00;;;27.10;56.40;;;;;;5007369;28;20484;-46
2023/08/19 04:57:53;;;;;;;6.80;3.90;;;27.20;55.80;;;;;;4999892;28;20193;-45
2023/08/19 05:00:18;;;;;;;5.53;4.20;;;27.30;55.60;;;;;;5005815;28;20305;-45
2023/08/19 05:02:44;;;;;;;4.67;3.90;;;27.40;55.60;;;;;;5016144;28;20552;-46
2023/08/19 05:05:09;;;;;;;4.20;3.87;;;27.50;55.40;;;;;;5008989;28;20216;-45
2023/08/19 05:07:35;;;;;;;4.10;3.53;;;27.50;54.90;;;;;;5007251;28;20193;-47
2023/08/19 05:10:00;;;;;;;4.57;4.17;;;27.50;55.10;;;;;;5007173;28;20363;-45
2023/08/19 05:12:26;;;;;;;3.80;3.50;;;27.50;55.00;;;;;;5009432;28;20229;-45
2023/08/19 05:14:52;;;;;;;4.17;3.77;;;27.60;54.90;;;;;;5005911;28;20237;-45
2023/08/19 05:17:18;;;;;;;3.93;3.50;;;27.60;54.80;;;;;;5004824;28;20208;-49
2023/08/19 05:19:44;;;;;;;4.27;3.90;;;27.70;54.70;;;;;;5005780;28;20452;-47
2023/08/19 05:22:10;;;;;;;3.60;3.30;;;27.70;54.90;;;;;;5009860;28;20186;-48
2023/08/19 05:24:36;;;;;;;3.80;3.50;;;27.80;54.80;;;;;;5010836;28;20444;-51
2023/08/19 05:27:02;;;;;;;3.63;3.30;;;27.90;54.50;;;;;;5002752;28;20935;-46
2023/08/19 05:29:27;;;;;;;4.80;4.30;;;27.90;54.30;;;;;;5006393;28;20200;-47
2023/08/19 05:31:53;;;;;;;4.70;4.30;;;28.00;54.20;;;;;;5006429;28;20190;-47
2023/08/19 05:34:19;;;;;;;4.30;3.50;;;27.70;53.90;;;;;;5005733;28;20252;-45
2023/08/19 05:36:44;;;;;;;4.53;3.90;;;27.50;54.70;;;;;;5006143;28;20198;-48
2023/08/19 05:39:10;;;;;;;5.73;5.23;;;27.40;55.10;;;;;;5008957;28;20202;-46
2023/08/19 05:41:36;;;;;;;6.00;4.20;;;26.80;56.10;;;;;;5009564;28;20198;-45
2023/08/19 05:44:03;;;;;;;4.57;3.80;;;26.50;57.30;;;;;;5012108;28;20206;-46
2023/08/19 05:46:28;;;;;;;5.27;4.77;;;26.40;57.80;;;;;;5011869;28;20476;-47
2023/08/19 05:48:55;;;;;;;4.63;4.20;;;26.40;57.80;;;;;;5012500;28;20457;-49
2023/08/19 05:51:21;;;;;;;5.50;4.17;;;26.30;57.90;;;;;;5011519;28;20494;-46
2023/08/19 05:53:46;;;;;;;4.20;3.90;;;26.20;58.10;;;;;;5012141;28;20229;-46
2023/08/19 05:56:12;;;;;;;4.47;3.97;;;26.10;58.50;;;;;;5012143;28;20192;-45
2023/08/19 05:58:38;;;;;;;5.23;4.27;;;26.00;59.10;;;;;;5012064;28;20635;-48
2023/08/19 06:01:04;;;;;;;4.23;3.83;;;25.90;59.30;;;;;;5011900;28;20194;-46
2023/08/19 06:03:30;;;;;;;4.97;4.47;;;25.90;59.30;;;;;;5010409;28;20201;-48
2023/08/19 06:05:56;;;;;;;4.50;4.10;;;26.00;59.30;;;;;;5011969;28;20429;-46
2023/08/19 06:08:21;;;;;;;5.23;4.00;;;26.10;59.00;;;;;;5008868;28;20213;-46
2023/08/19 06:11:00;;;;;;;9.63;4.70;;;26.10;58.50;;;;;;5011522;28;20204;-47
2023/08/19 06:13:25;;;;;;;4.27;3.93;;;26.30;58.30;;;;;;5014749;28;20205;-46
2023/08/19 06:15:51;;;;;;;4.73;4.30;;;26.50;58.10;;;;;;5016939;28;20798;-47
2023/08/19 06:18:16;;;;;;;4.33;4.03;;;26.50;57.60;;;;;;5016080;28;20190;-46
2023/08/19 06:20:42;;;;;;;6.57;4.90;;;26.50;57.80;;;;;;5015702;28;20641;-46
2023/08/19 06:23:07;;;;;;;6.60;4.40;;;26.70;57.50;;;;;;5015450;28;20206;-46
2023/08/19 06:25:33;;;;;;;5.40;3.73;;;26.60;57.70;;;;;;5015830;28;20194;-47
2023/08/19 06:27:58;;;;;;;3.87;3.67;;;26.50;58.40;;;;;;5015395;28;20190;-49
2023/08/19 06:30:24;;;;;;;4.60;4.10;;;26.80;58.30;;;;;;5014325;28;20205;-45
2023/08/19 06:32:50;;;;;;;4.50;4.20;;;26.90;57.70;;;;;;5015052;28;20197;-47
2023/08/19 06:35:16;;;;;;;4.47;4.07;;;27.20;57.50;;;;;;5015854;28;20312;-47
2023/08/19 06:37:47;;;;;;;5.30;3.77;;;27.40;57.20;;;;;;5015129;28;20186;-47
2023/08/19 06:40:19;;;;;;;5.00;3.70;;;27.60;56.20;;;;;;5015787;28;20190;-46
2023/08/19 06:42:45;;;;;;;5.30;4.30;;;27.80;55.50;;;;;;5014792;28;20920;-46
2023/08/19 06:45:12;;;;;;;4.17;3.87;;;28.10;54.80;;;;;;5015575;28;20435;-47
2023/08/19 06:47:39;;;;;;;7.03;4.20;;;28.20;54.70;;;;;;5014825;28;20982;-46
2023/08/19 06:50:06;;;;;;;3.80;3.50;;;28.20;54.10;;;;;;5015449;28;20445;-47
2023/08/19 06:52:31;;;;;;;5.40;4.77;;;28.40;53.80;;;;;;5014819;28;20451;-46
2023/08/19 06:54:57;;;;;;;6.37;3.77;;;28.50;53.70;;;;;;5014356;28;20488;-46
2023/08/19 06:57:47;;;;;;;4.27;3.93;;;28.50;53.10;;;;;;5013945;28;20566;-47
2023/08/19 07:00:14;;;;;;;3.90;3.60;;;28.80;53.20;;;;;;5015537;28;20204;-46
2023/08/19 07:02:40;;;;;;;4.40;4.07;;;29.10;52.50;;;;;;5014391;28;20464;-47
2023/08/19 07:05:18;;;;;;;6.67;3.70;;;29.30;51.50;;;;;;5015492;28;20460;-46
2023/08/19 07:07:48;;;;;;;4.23;3.27;;;29.20;51.90;;;;;;5014459;28;20194;-46
2023/08/19 07:10:17;;;;;;;4.17;3.60;;;29.60;51.70;;;;;;5015187;28;20425;-47
2023/08/19 07:12:43;;;;;;;6.83;3.73;;;29.70;49.90;;;;;;5014465;28;20460;-46
2023/08/19 07:15:12;;;;;;;5.33;3.80;;;29.50;50.20;;;;;;5017898;28;20475;-46
2023/08/19 07:17:42;;;;;;;5.50;4.00;;;29.70;50.60;;;;;;5018674;28;20453;-46
2023/08/19 07:20:11;;;;;;;4.30;4.00;;;29.70;50.40;;;;;;5015106;28;20425;-46
2023/08/19 07:22:38;;;;;;;5.30;3.10;;;29.80;49.70;;;;;;5012755;28;20539;-46
2023/08/19 07:25:05;;;;;;;5.97;4.40;;;30.00;50.40;;;;;;5003759;28;20793;-46
2023/08/19 07:27:32;;;;;;;7.13;3.37;;;30.20;49.00;;;;;;5013988;28;20812;-46
2023/08/19 07:29:59;;;;;;;6.10;3.57;;;30.30;48.90;;;;;;5014907;28;20487;-46
2023/08/19 07:32:27;;;;;;;4.00;3.50;;;30.60;48.60;;;;;;5014150;28;20866;-46
2023/08/19 07:34:52;;;;;;;4.43;3.90;;;30.80;49.10;;;;;;5014434;28;20485;-47
2023/08/19 07:37:18;;;;;;;4.60;3.50;;;31.10;48.00;;;;;;5014053;28;20428;-46
2023/08/19 07:39:43;;;;;;;6.23;3.73;;;31.20;47.20;;;;;;5014836;28;20194;-50
2023/08/19 07:42:09;;;;;;;4.33;3.93;;;31.30;46.90;;;;;;5012607;28;20205;-46
2023/08/19 07:44:35;;;;;;;4.67;3.57;;;31.60;46.70;;;;;;5014523;28;20193;-46
2023/08/19 07:47:00;;;;;;;3.80;3.50;;;31.90;45.50;;;;;;5013965;28;20238;-47
2023/08/19 07:49:26;;;;;;;4.73;3.40;;;32.20;45.40;;;;;;5012865;28;20638;-46
2023/08/19 07:51:51;;;;;;;4.30;3.87;;;32.40;44.80;;;;;;5013819;28;20206;-52
2023/08/19 07:54:21;;;;;;;7.87;3.77;;;32.60;44.30;;;;;;5014210;28;20229;-46
2023/08/19 07:56:47;;;;;;;4.87;3.57;;;32.80;43.00;;;;;;5013612;28;20539;-46
2023/08/19 07:59:12;;;;;;;5.53;3.70;;;32.40;43.00;;;;;;5014104;28;20447;-49
2023/08/19 08:01:38;;;;;;;5.30;4.07;;;32.30;43.50;;;;;;5013291;28;20182;-46
2023/08/19 08:04:04;;;;;;;5.87;3.60;;;32.50;43.70;;;;;;5014130;28;20193;-47
2023/08/19 08:06:30;;;;;;;5.83;4.20;;;32.80;43.40;;;;;;5005529;28;20194;-46
2023/08/19 08:08:55;;;;;;;9.33;3.70;;;33.00;43.20;;;;;;5012657;28;20425;-47
2023/08/19 08:11:21;;;;;;;4.13;3.83;;;33.00;42.10;;;;;;5013532;28;20197;-49
2023/08/19 08:13:46;;;;;;;5.53;4.03;;;33.30;42.50;;;;;;5013649;28;20213;-47
2023/08/19 08:16:12;;;;;;;5.10;3.20;;;33.50;42.20;;;;;;5012784;28;20194;-46
2023/08/19 08:18:37;;;;;;;4.63;3.87;;;33.60;42.30;;;;;;5013834;28;20269;-48
2023/08/19 08:21:03;;;;;;;4.73;3.27;;;33.80;42.50;;;;;;5013491;28;20350;-46
2023/08/19 08:23:29;;;;;;;6.47;3.77;;;34.00;41.60;;;;;;5012545;28;20198;-47
2023/08/19 08:25:54;;;;;;;8.40;3.80;;;34.30;41.00;;;;;;5013106;28;20351;-46
2023/08/19 08:28:20;;;;;;;5.73;3.40;;;34.40;40.50;;;;;;5013680;28;20194;-47
2023/08/19 08:30:45;;;;;;;5.77;4.37;;;34.50;40.20;;;;;;5013452;28;20665;-49
2023/08/19 08:33:11;;;;;;;5.07;3.80;;;34.70;39.90;;;;;;5013542;28;20202;-47
2023/08/19 08:35:37;;;;;;;4.80;3.60;;;34.80;39.40;;;;;;5012971;28;20225;-47
2023/08/19 08:38:03;;;;;;;4.33;3.63;;;35.00;39.20;;;;;;5012879;28;20190;-46
2023/08/19 08:40:31;;;;;;;6.97;4.20;;;34.90;38.90;;;;;;5013605;28;20635;-47
2023/08/19 08:42:57;;;;;;;8.20;4.50;;;35.10;39.20;;;;;;5011052;28;20190;-47
2023/08/19 08:45:26;;;;;;;4.60;4.07;;;35.10;38.80;;;;;;5013273;28;20532;-47
2023/08/19 08:47:52;;;;;;;5.77;4.20;;;35.10;38.70;;;;;;5012823;28;20245;-47
2023/08/19 08:50:18;;;;;;;6.27;4.60;;;35.10;38.30;;;;;;5013502;28;20464;-48
2023/08/19 08:52:44;;;;;;;4.80;4.03;;;35.20;38.10;;;;;;5012857;28;20950;-47
2023/08/19 08:55:11;;;;;;;4.90;4.00;;;35.40;38.50;;;;;;5013160;28;20677;-47
2023/08/19 08:57:37;;;;;;;5.40;3.77;;;35.60;38.60;;;;;;5012767;28;20421;-46
2023/08/19 09:00:03;;;;;;;8.77;4.70;;;35.90;38.80;;;;;;5012797;28;20512;-47
2023/08/19 09:02:29;;;;;;;4.70;4.20;;;35.80;37.90;;;;;;5012412;28;20218;-46
2023/08/19 09:04:56;;;;;;;5.67;4.33;;;36.00;37.80;;;;;;5012858;28;20503;-47
2023/08/19 09:07:30;;;;;;;8.67;4.80;;;36.20;37.40;;;;;;5011069;28;20425;-48
2023/08/19 09:09:58;;;;;;;6.50;4.83;;;36.40;36.50;;;;;;5012959;28;20441;-47
2023/08/19 09:12:26;;;;;;;7.10;4.30;;;36.50;36.00;;;;;;5012277;28;20428;-47
2023/08/19 09:14:55;;;;;;;5.83;4.17;;;36.30;36.90;;;;;;5013217;28;20827;-46
2023/08/19 09:17:20;;;;;;;6.53;5.20;;;36.40;36.60;;;;;;5019309;28;20495;-47
2023/08/19 09:19:46;;;;;;;5.33;4.23;;;36.40;36.60;;;;;;5013035;28;20437;-46
2023/08/19 09:22:15;;;;;;;5.27;4.70;;;36.30;36.40;;;;;;5012254;28;20217;-47
2023/08/19 09:24:40;;;;;;;5.77;4.27;;;36.20;36.50;;;;;;5012906;28;20285;-48
2023/08/19 09:27:06;;;;;;;6.33;4.60;;;36.10;36.40;;;;;;5012232;28;20530;-48
2023/08/19 09:29:35;;;;;;;5.87;4.47;;;36.10;36.10;;;;;;5001840;28;20264;-47
2023/08/19 09:32:02;;;;;;;8.37;4.97;;;36.00;37.10;;;;;;5012349;28;20185;-48
2023/08/19 09:34:28;;;;;;;5.60;4.10;;;36.30;37.20;;;;;;5010948;28;20480;-47
2023/08/19 09:36:56;;;;;;;5.60;4.40;;;36.50;36.50;;;;;;5003408;28;20443;-48
2023/08/19 09:39:25;;;;;;;5.10;4.60;;;36.70;36.80;;;;;;5011081;28;20194;-48
2023/08/19 09:41:59;;;;;;;8.67;4.03;;;36.90;35.20;;;;;;5012051;28;20424;-47
2023/08/19 09:44:29;;;;;;;7.00;4.70;;;37.20;35.20;;;;;;5012466;28;20424;-49
2023/08/19 09:46:56;;;;;;;8.13;4.37;;;37.10;34.70;;;;;;5011973;28;20878;-47
2023/08/19 09:49:22;;;;;;;4.80;4.30;;;37.00;34.80;;;;;;5016622;28;20962;-47
2023/08/19 09:51:55;;;;;;;9.63;5.00;;;37.30;34.50;;;;;;5016299;28;20423;-46
2023/08/19 09:54:22;;;;;;;5.00;4.13;;;37.70;34.50;;;;;;5016547;28;20491;-47
2023/08/19 09:56:58;;;;;;;9.10;5.93;;;38.00;33.70;;;;;;5016154;28;20424;-51
2023/08/19 09:59:24;;;;;;;4.87;4.37;;;38.40;34.50;;;;;;5016263;28;20848;-47
2023/08/19 10:01:51;;;;;;;8.67;4.67;;;38.70;34.90;;;;;;5009986;28;20802;-48
2023/08/19 10:04:18;;;;;;;5.80;4.93;;;39.00;33.80;;;;;;5016713;28;20836;-49
2023/08/19 10:06:47;;;;;;;4.47;3.67;;;39.20;32.60;;;;;;5015819;28;20911;-47
2023/08/19 10:09:16;;;;;;;5.40;4.53;;;39.30;30.70;;;;;;5016307;28;20432;-48
2023/08/19 10:11:43;;;;;;;4.80;4.20;;;39.60;30.40;;;;;;5015539;28;20440;-47
2023/08/19 10:14:10;;;;;;;5.27;4.73;;;39.30;30.30;;;;;;5016133;28;20483;-48
2023/08/19 10:16:40;;;;;;;6.27;3.90;;;39.20;30.80;;;;;;5015542;28;20511;-47
2023/08/19 10:19:09;;;;;;;4.67;4.27;;;39.50;30.10;;;;;;5015920;28;20431;-48
2023/08/19 10:21:36;;;;;;;5.47;4.20;;;39.70;29.50;;;;;;5015424;28;20416;-47
2023/08/19 10:24:03;;;;;;;9.23;4.13;;;39.90;29.70;;;;;;5016070;28;20423;-48
2023/08/19 10:26:28;;;;;;;8.67;4.60;;;40.00;28.80;;;;;;5014746;28;20515;-50
2023/08/19 10:29:05;;;;;;;7.43;4.20;;;40.30;28.60;;;;;;5015192;28;20515;-47
2023/08/19 10:31:32;;;;;;;6.33;3.80;;;40.40;28.50;;;;;;5015296;28;20201;-48
2023/08/19 10:33:57;;;;;;;5.30;4.27;;;40.40;28.50;;;;;;5015803;28;20518;-48
2023/08/19 10:36:29;;;;;;;5.03;4.40;;;40.60;28.50;;;;;;5015128;28;20957;-47
2023/08/19 10:38:56;;;;;;;6.87;4.00;;;40.70;28.80;;;;;;5015649;28;20198;-47
2023/08/19 10:41:36;;;;;;;5.63;4.00;;;40.70;28.70;;;;;;5015119;28;20420;-48
2023/08/19 10:44:10;;;;;;;5.30;4.10;;;40.80;28.60;;;;;;5015766;28;20942;-47
2023/08/19 10:46:44;;;;;;;5.23;4.37;;;40.90;27.80;;;;;;5013666;28;20887;-48
2023/08/19 10:49:15;;;;;;;4.03;3.73;;;41.00;27.60;;;;;;5015688;28;20287;-48
2023/08/19 10:51:47;;;;;;;4.90;4.40;;;40.90;28.40;;;;;;5014879;28;20432;-47
2023/08/19 10:54:13;;;;;;;9.80;4.53;;;41.00;28.40;;;;;;5013658;28;20480;-50
2023/08/19 10:57:11;;;;;;;5.07;4.27;;;41.30;28.30;;;;;;5014968;28;20420;-48
2023/08/19 10:59:44;;;;;;;6.40;4.50;;;41.60;27.90;;;;;;4980269;28;20498;-47
2023/08/19 11:02:11;;;;;;;8.00;4.67;;;41.70;27.30;;;;;;5014906;28;20450;-47
2023/08/19 11:04:43;;;;;;;6.53;4.33;;;41.80;27.20;;;;;;5015140;28;20468;-47
2023/08/19 11:07:10;;;;;;;8.73;4.53;;;42.00;26.90;;;;;;5015015;28;20212;-48
2023/08/19 11:09:36;;;;;;;4.50;4.10;;;42.10;27.00;;;;;;5015013;28;20436;-48
2023/08/19 11:12:02;;;;;;;4.27;3.87;;;42.10;26.70;;;;;;5014904;28;20649;-47
2023/08/19 11:14:29;;;;;;;6.53;3.93;;;42.30;26.00;;;;;;5015114;28;20225;-51
2023/08/19 11:16:56;;;;;;;6.03;4.20;;;42.40;27.10;;;;;;5020593;28;20193;-48
2023/08/19 11:19:22;;;;;;;4.63;4.07;;;42.50;26.70;;;;;;5014792;28;20338;-53
2023/08/19 11:21:49;;;;;;;4.85;3.63;;;42.70;27.50;;;;;;5013255;28;20439;-48
2023/08/19 11:24:15;;;;;;;6.25;3.88;;;42.80;27.00;;;;;;5008073;28;20657;-48
2023/08/19 11:26:41;;;;;;;8.02;4.07;;;43.10;25.50;;;;;;5014347;28;20201;-47
2023/08/19 11:29:08;;;;;;;6.55;4.20;;;43.10;24.80;;;;;;5014822;28;20654;-48
2023/08/19 11:31:34;;;;;;;4.22;3.83;;;43.30;24.70;;;;;;5014342;28;20562;-47
2023/08/19 11:34:00;;;;;;;3.83;3.47;;;43.40;24.40;;;;;;5014848;28;20236;-48
2023/08/19 11:36:26;;;;;;;5.40;3.90;;;43.10;22.90;;;;;;5013834;28;20189;-49
2023/08/19 11:38:56;;;;;;;4.60;4.20;;;42.20;23.90;;;;;;5003657;28;20680;-48
2023/08/19 11:41:22;;;;;;;3.85;3.42;;;42.50;23.80;;;;;;5014122;28;20703;-48
2023/08/19 11:43:50;;;;;;;7.15;4.40;;;42.80;23.70;;;;;;5014362;28;20213;-49
2023/08/19 11:46:16;;;;;;;6.75;4.15;;;42.30;23.50;;;;;;5011851;28;20194;-49
2023/08/19 11:48:42;;;;;;;4.68;3.70;;;42.40;24.70;;;;;;5014771;28;20201;-50
2023/08/19 11:51:10;;;;;;;3.10;2.80;;;42.60;24.50;;;;;;5013988;28;20221;-48
2023/08/19 11:53:36;;;;;;;4.00;3.60;;;42.90;24.70;;;;;;5014237;28;20589;-50
2023/08/19 11:56:03;;;;;;;5.40;3.60;;;43.10;24.00;;;;;;5013662;28;20193;-47
2023/08/19 11:58:51;;;;;;;4.68;3.63;;;43.30;23.90;;;;;;5014076;28;20201;-48
2023/08/19 12:01:21;;;;;;;6.53;3.70;;;43.40;24.40;;;;;;5013410;28;20209;-51
2023/08/19 12:03:49;;;;;;;6.82;3.60;;;43.40;24.10;;;;;;5013711;28;20251;-47
2023/08/19 12:06:16;;;;;;;4.55;4.15;;;43.50;23.20;;;;;;5013584;28;20241;-48
2023/08/19 12:08:44;;;;;;;4.63;3.70;;;43.50;22.50;;;;;;5014093;28;20203;-47
2023/08/19 12:11:11;;;;;;;3.83;3.47;;;43.60;23.40;;;;;;5012721;28;20240;-48
2023/08/19 12:13:37;;;;;;;3.95;3.60;;;43.60;24.00;;;;;;5012327;28;20202;-49
2023/08/19 12:16:03;;;;;;;7.13;4.30;;;43.60;24.70;;;;;;5017216;28;20204;-47
2023/08/19 12:18:33;;;;;;;5.15;3.65;;;43.60;24.40;;;;;;5014085;28;20256;-48
2023/08/19 12:21:03;;;;;;;4.75;3.80;;;43.70;24.20;;;;;;5013474;28;20197;-47
2023/08/19 12:23:29;;;;;;;4.82;3.80;;;43.90;23.00;;;;;;5013734;28;20185;-47
2023/08/19 12:25:57;;;;;;;4.28;3.97;;;44.10;23.60;;;;;;5013098;28;20280;-48
2023/08/19 12:28:24;;;;;;;9.55;4.35;;;44.20;23.40;;;;;;5013738;28;20231;-48
2023/08/19 12:30:51;;;;;;;6.80;3.85;;;44.30;22.30;;;;;;5013139;28;20197;-48
2023/08/19 12:33:18;;;;;;;4.70;3.65;;;44.40;23.50;;;;;;5013415;28;20201;-48
2023/08/19 12:35:46;;;;;;;4.20;3.80;;;44.60;22.60;;;;;;5012933;28;20225;-51
2023/08/19 12:38:17;;;;;;;4.63;4.13;;;44.70;22.20;;;;;;5013271;28;20193;-47
2023/08/19 12:40:43;;;;;;;4.32;3.92;;;44.50;21.70;;;;;;5012032;28;20223;-48
2023/08/19 12:43:10;;;;;;;4.65;4.25;;;44.50;21.80;;;;;;5013160;28;20201;-49
2023/08/19 12:45:36;;;;;;;7.63;4.40;;;44.30;22.90;;;;;;5013474;28;20268;-48
2023/08/19 12:48:03;;;;;;;4.07;3.53;;;44.30;21.80;;;;;;5012340;28;20245;-48
2023/08/19 12:50:29;;;;;;;4.38;3.80;;;44.20;22.80;;;;;;5013347;28;20201;-48
2023/08/19 12:52:54;;;;;;;5.38;4.68;;;44.20;22.80;;;;;;5012677;28;20201;-48